createdAt,value
2023-01-08T00:01:36.629Z,2.67
2023-01-08T00:04:05.159Z,3.30
2023-01-08T00:06:35.493Z,2.90
2023-01-08T00:09:04.642Z,2.83
2023-01-08T00:11:33.126Z,3.00
2023-01-08T00:14:02.854Z,2.90
2023-01-08T00:16:31.994Z,2.67
2023-01-08T00:19:00.391Z,2.50
2023-01-08T00:21:29.370Z,2.30
2023-01-08T00:23:57.748Z,2.20
2023-01-08T00:26:26.270Z,1.90
2023-01-08T00:28:54.601Z,2.03
2023-01-08T00:31:24.321Z,2.00
2023-01-08T00:33:52.750Z,1.70
2023-01-08T00:36:21.499Z,2.30
2023-01-08T00:38:49.933Z,2.10
2023-01-08T00:41:18.699Z,2.00
2023-01-08T00:43:47.041Z,2.40
2023-01-08T00:46:15.504Z,2.30
2023-01-08T00:48:45.262Z,2.00
2023-01-08T00:51:14.081Z,1.87
2023-01-08T00:53:42.411Z,1.90
2023-01-08T00:56:11.742Z,2.10
2023-01-08T00:58:40.278Z,2.30
2023-01-08T01:01:12.738Z,2.13
2023-01-08T01:03:42.815Z,1.80
2023-01-08T01:06:14.595Z,1.87
2023-01-08T01:08:44.293Z,1.80
2023-01-08T01:11:18.945Z,1.97
2023-01-08T01:13:47.426Z,2.03
2023-01-08T01:16:16.287Z,2.33
2023-01-08T01:18:44.989Z,2.57
2023-01-08T01:21:22.567Z,2.80
2023-01-08T01:23:51.298Z,2.60
2023-01-08T01:26:21.315Z,2.07
2023-01-08T01:28:50.768Z,1.97
2023-01-08T01:31:20.216Z,1.70
2023-01-08T01:33:49.393Z,2.20
2023-01-08T01:36:22.685Z,2.37
2023-01-08T01:38:52.688Z,2.47
2023-01-08T01:41:26.532Z,2.13
2023-01-08T01:43:56.115Z,2.10
2023-01-08T01:46:35.771Z,1.80
2023-01-08T01:49:09.548Z,2.03
2023-01-08T01:51:42.518Z,2.03
2023-01-08T01:54:13.922Z,2.17
2023-01-08T01:56:43.839Z,2.43
2023-01-08T01:59:13.181Z,2.30
2023-01-08T02:01:43.812Z,2.13
2023-01-08T02:04:13.157Z,2.00
2023-01-08T02:06:48.092Z,2.00
2023-01-08T02:09:24.582Z,1.60
2023-01-08T02:12:14.494Z,2.73
2023-01-08T02:14:54.148Z,3.03
2023-01-08T02:17:28.772Z,3.63
2023-01-08T02:20:04.093Z,3.23
2023-01-08T02:22:45.931Z,3.10
2023-01-08T02:25:21.718Z,2.23
2023-01-08T02:27:55.652Z,2.47
2023-01-08T02:30:24.499Z,2.63
2023-01-08T02:32:52.923Z,2.20
2023-01-08T02:35:21.409Z,2.83
2023-01-08T02:37:49.815Z,2.10
2023-01-08T02:40:27.395Z,2.00
2023-01-08T02:43:03.311Z,2.20
2023-01-08T02:45:38.546Z,2.07
2023-01-08T02:48:13.155Z,1.97
2023-01-08T02:50:45.973Z,2.03
2023-01-08T02:53:17.727Z,2.40
2023-01-08T02:55:50.687Z,2.30
2023-01-08T02:58:22.911Z,2.40
2023-01-08T03:00:52.075Z,3.50
2023-01-08T03:03:23.557Z,2.37
2023-01-08T03:05:54.347Z,2.30
2023-01-08T03:08:24.306Z,1.73
2023-01-08T03:10:57.512Z,1.80
2023-01-08T03:13:31.827Z,2.10
2023-01-08T03:16:13.216Z,1.70
2023-01-08T03:18:48.236Z,1.83
2023-01-08T03:21:19.021Z,2.00
2023-01-08T03:23:48.961Z,2.10
2023-01-08T03:26:21.584Z,2.60
2023-01-08T03:28:55.278Z,2.40
2023-01-08T03:31:26.279Z,2.43
2023-01-08T03:33:56.003Z,2.40
2023-01-08T03:36:29.139Z,2.97
2023-01-08T03:39:01.177Z,2.80
2023-01-08T03:41:32.413Z,3.00
2023-01-08T03:44:02.139Z,2.67
2023-01-08T03:46:34.455Z,2.40
2023-01-08T03:49:05.236Z,2.70
2023-01-08T03:51:40.950Z,2.60
2023-01-08T03:54:12.508Z,2.30
2023-01-08T03:56:41.001Z,2.50
2023-01-08T03:59:12.337Z,3.00
2023-01-08T04:01:41.075Z,2.60
2023-01-08T04:04:11.407Z,2.70
2023-01-08T04:06:39.844Z,2.47
2023-01-08T04:09:08.206Z,2.80
2023-01-08T04:11:36.804Z,3.10
2023-01-08T04:14:05.322Z,3.03
2023-01-08T04:16:35.154Z,3.20
2023-01-08T04:19:03.515Z,3.47
2023-01-08T04:21:31.857Z,3.10
2023-01-08T04:24:00.261Z,2.33
2023-01-08T04:26:28.612Z,2.07
2023-01-08T04:28:57.131Z,1.70
2023-01-08T04:31:25.724Z,2.30
2023-01-08T04:33:55.433Z,2.17
2023-01-08T04:36:23.757Z,2.90
2023-01-08T04:38:52.140Z,3.07
2023-01-08T04:41:20.518Z,3.57
2023-01-08T04:43:48.909Z,4.70
2023-01-08T04:46:17.385Z,3.80
2023-01-08T04:48:45.846Z,2.80
2023-01-08T04:51:15.629Z,3.07
2023-01-08T04:53:45.473Z,2.83
2023-01-08T04:56:13.921Z,2.63
2023-01-08T04:58:42.315Z,2.67
2023-01-08T05:01:13.005Z,2.93
2023-01-08T05:03:41.549Z,2.83
2023-01-08T05:06:09.953Z,2.80
2023-01-08T05:08:39.797Z,2.73
2023-01-08T05:11:08.417Z,3.27
2023-01-08T05:13:36.719Z,3.40
2023-01-08T05:16:05.796Z,2.83
2023-01-08T05:18:34.414Z,2.50
2023-01-08T05:21:03.629Z,2.67
2023-01-08T05:23:32.649Z,2.93
2023-01-08T05:26:03.889Z,2.70
2023-01-08T05:28:32.880Z,2.80
2023-01-08T05:31:01.310Z,2.60
2023-01-08T05:33:29.660Z,3.10
2023-01-08T05:35:58.002Z,2.70
2023-01-08T05:38:26.414Z,2.37
2023-01-08T05:40:55.174Z,2.90
2023-01-08T05:43:24.862Z,2.30
2023-01-08T05:45:53.468Z,2.33
2023-01-08T05:48:21.837Z,2.30
2023-01-08T05:50:50.544Z,1.63
2023-01-08T05:53:18.990Z,2.27
2023-01-08T05:55:47.760Z,2.30
2023-01-08T05:58:18.985Z,1.87
2023-01-08T06:00:48.774Z,1.90
2023-01-08T06:03:17.121Z,1.90
2023-01-08T06:05:45.434Z,1.97
2023-01-08T06:08:13.733Z,2.13
2023-01-08T06:10:42.107Z,2.00
2023-01-08T06:13:11.222Z,2.27
2023-01-08T06:15:40.591Z,2.10
2023-01-08T06:18:10.406Z,2.07
2023-01-08T06:20:38.746Z,2.40
2023-01-08T06:23:08.714Z,2.30
2023-01-08T06:25:37.153Z,2.47
2023-01-08T06:28:06.053Z,2.67
2023-01-08T06:30:34.450Z,2.47
2023-01-08T06:33:03.088Z,2.50
2023-01-08T06:35:32.791Z,2.70
2023-01-08T06:38:01.140Z,2.80
2023-01-08T06:40:29.546Z,3.03
2023-01-08T06:43:01.820Z,2.73
2023-01-08T06:45:30.435Z,2.23
2023-01-08T06:48:02.137Z,3.17
2023-01-08T06:50:32.324Z,3.87
2023-01-08T06:53:00.780Z,4.20
2023-01-08T06:55:29.100Z,4.10
2023-01-08T06:57:58.765Z,5.63
2023-01-08T07:00:27.570Z,3.80
2023-01-08T07:02:56.423Z,3.67
2023-01-08T07:05:25.357Z,9.40
2023-01-08T07:07:55.812Z,5.63
2023-01-08T07:10:24.410Z,5.63
2023-01-08T07:12:52.935Z,5.33
2023-01-08T07:15:21.287Z,5.20
2023-01-08T07:17:49.661Z,5.10
2023-01-08T07:20:18.061Z,4.03
2023-01-08T07:22:46.344Z,4.40
2023-01-08T07:25:16.320Z,4.10
2023-01-08T07:27:44.590Z,3.57
2023-01-08T07:30:28.376Z,3.97
2023-01-08T07:33:00.549Z,3.63
2023-01-08T07:35:29.090Z,3.13
2023-01-08T07:37:57.625Z,3.67
2023-01-08T07:40:27.331Z,4.80
2023-01-08T07:43:00.334Z,3.87
2023-01-08T07:45:29.099Z,4.20
2023-01-08T07:47:58.480Z,3.90
2023-01-08T07:50:27.148Z,3.20
2023-01-08T07:52:59.094Z,3.47
2023-01-08T07:55:30.185Z,3.83
2023-01-08T07:57:59.234Z,3.57
2023-01-08T08:00:28.168Z,3.37
2023-01-08T08:02:56.662Z,3.20
2023-01-08T08:05:25.117Z,3.50
2023-01-08T08:07:53.568Z,2.50
2023-01-08T08:10:24.614Z,2.50
2023-01-08T08:12:54.376Z,2.80
2023-01-08T08:15:22.976Z,3.00
2023-01-08T08:17:51.320Z,3.90
2023-01-08T08:20:19.712Z,2.97
2023-01-08T08:22:48.038Z,3.27
2023-01-08T08:25:16.516Z,3.00
2023-01-08T08:27:45.778Z,2.80
2023-01-08T08:30:16.026Z,2.93
2023-01-08T08:32:44.377Z,3.70
2023-01-08T08:35:12.833Z,4.10
2023-01-08T08:37:41.188Z,4.80
2023-01-08T08:40:10.395Z,6.97
2023-01-08T08:42:38.886Z,6.43
2023-01-08T08:45:08.365Z,4.67
2023-01-08T08:47:38.171Z,3.50
2023-01-08T08:50:07.879Z,3.93
2023-01-08T08:52:37.557Z,7.83
2023-01-08T08:55:06.922Z,4.97
2023-01-08T08:57:35.262Z,5.83
2023-01-08T09:00:03.988Z,6.67
2023-01-08T09:02:32.521Z,4.40
2023-01-08T09:05:02.399Z,3.77
2023-01-08T09:07:33.861Z,5.57
2023-01-08T09:10:04.304Z,2.97
2023-01-08T09:12:32.659Z,2.33
2023-01-08T09:15:01.066Z,2.60
2023-01-08T09:17:29.448Z,2.77
2023-01-08T09:19:57.800Z,3.20
2023-01-08T09:22:27.563Z,18.63
2023-01-08T09:24:56.123Z,4.20
2023-01-08T09:27:24.592Z,8.90
2023-01-08T09:29:53.176Z,2.60
2023-01-08T09:32:21.551Z,2.70
2023-01-08T09:34:49.919Z,2.33
2023-01-08T09:37:18.283Z,3.73
2023-01-08T09:39:51.363Z,2.50
2023-01-08T09:42:25.568Z,2.20
2023-01-08T09:44:58.936Z,3.00
2023-01-08T09:47:30.290Z,3.83
2023-01-08T09:50:02.425Z,2.87
2023-01-08T09:52:32.758Z,3.07
2023-01-08T09:55:02.721Z,3.80
2023-01-08T09:57:31.200Z,3.63
2023-01-08T09:59:59.620Z,3.50
2023-01-08T10:02:29.867Z,10.40
2023-01-08T10:05:01.209Z,4.87
2023-01-08T10:07:31.293Z,5.80
2023-01-08T10:10:00.975Z,6.57
2023-01-08T10:12:32.854Z,4.87
2023-01-08T10:15:03.298Z,15.20
2023-01-08T10:17:38.405Z,8.30
2023-01-08T10:20:13.563Z,4.30
2023-01-08T10:22:44.066Z,5.00
2023-01-08T10:25:14.837Z,3.00
2023-01-08T10:27:49.791Z,3.07
2023-01-08T10:30:20.516Z,2.33
2023-01-08T10:32:54.224Z,2.20
2023-01-08T10:35:26.044Z,2.20
2023-01-08T10:37:54.909Z,2.83
2023-01-08T10:40:29.428Z,2.90
2023-01-08T10:43:06.861Z,2.20
2023-01-08T10:45:35.349Z,2.00
2023-01-08T10:48:08.332Z,2.07
2023-01-08T10:50:36.696Z,2.43
2023-01-08T10:53:06.455Z,2.17
2023-01-08T10:55:37.586Z,2.27
2023-01-08T10:58:16.115Z,2.10
2023-01-08T11:00:44.570Z,2.20
2023-01-08T11:03:24.364Z,1.90
2023-01-08T11:05:52.911Z,1.80
2023-01-08T11:08:23.376Z,2.23
2023-01-08T11:10:56.177Z,2.53
2023-01-08T11:13:27.240Z,2.30
2023-01-08T11:16:03.776Z,1.80
2023-01-08T11:18:35.131Z,1.83
2023-01-08T11:21:11.484Z,1.90
2023-01-08T11:23:39.884Z,1.83
2023-01-08T11:26:11.905Z,2.40
2023-01-08T11:28:50.647Z,2.13
2023-01-08T11:31:22.552Z,2.10
2023-01-08T11:33:56.957Z,1.87
2023-01-08T11:36:31.476Z,2.20
2023-01-08T11:38:59.830Z,1.50
2023-01-08T11:41:45.417Z,1.73
2023-01-08T11:44:29.817Z,1.87
2023-01-08T11:47:06.345Z,2.00
2023-01-08T11:49:51.070Z,1.90
2023-01-08T11:52:35.912Z,1.80
2023-01-08T11:55:19.340Z,1.73
2023-01-08T11:58:00.799Z,2.07
2023-01-08T12:00:44.752Z,2.20
2023-01-08T12:03:23.178Z,2.13
2023-01-08T12:06:01.673Z,2.13
2023-01-08T12:08:40.977Z,3.63
2023-01-08T12:11:18.138Z,6.90
2023-01-08T12:14:03.882Z,4.43
2023-01-08T12:16:56.282Z,8.33
2023-01-08T12:19:38.580Z,17.20
2023-01-08T12:22:25.327Z,14.87
2023-01-08T12:25:23.615Z,17.37
2023-01-08T12:28:02.189Z,7.13
2023-01-08T12:30:47.761Z,10.03
2023-01-08T12:33:24.949Z,3.20
2023-01-08T12:35:56.257Z,4.93
2023-01-08T12:38:29.854Z,4.10
2023-01-08T12:41:01.411Z,3.43
2023-01-08T12:43:35.785Z,3.80
2023-01-08T12:46:06.686Z,3.37
2023-01-08T12:48:37.501Z,3.20
2023-01-08T12:51:13.510Z,3.33
2023-01-08T12:53:50.677Z,2.97
2023-01-08T12:56:25.828Z,2.07
2023-01-08T12:59:22.787Z,2.00
2023-01-08T13:01:59.008Z,2.77
2023-01-08T13:04:28.837Z,2.73
2023-01-08T13:07:03.128Z,2.20
2023-01-08T13:09:32.944Z,2.70
2023-01-08T13:12:02.237Z,2.67
2023-01-08T13:14:42.468Z,2.50
2023-01-08T13:17:18.784Z,3.60
2023-01-08T13:19:54.728Z,2.67
2023-01-08T13:22:29.127Z,2.40
2023-01-08T13:25:12.035Z,2.00
2023-01-08T13:27:40.377Z,2.27
2023-01-08T13:30:49.104Z,2.40
2023-01-08T13:33:27.421Z,2.30
2023-01-08T13:36:20.931Z,2.13
2023-01-08T13:39:08.121Z,2.50
2023-01-08T13:41:40.040Z,4.30
2023-01-08T13:44:28.492Z,10.30
2023-01-08T13:47:01.237Z,4.03
2023-01-08T13:49:35.472Z,4.07
2023-01-08T13:52:06.516Z,6.83
2023-01-08T13:54:39.353Z,3.50
2023-01-08T13:57:14.430Z,3.80
2023-01-08T13:59:49.147Z,4.87
2023-01-08T14:02:42.542Z,3.77
2023-01-08T14:05:20.365Z,2.40
2023-01-08T14:07:50.141Z,2.77
2023-01-08T14:10:19.230Z,3.07
2023-01-08T14:12:48.262Z,2.80
2023-01-08T14:15:23.906Z,3.13
2023-01-08T14:17:52.969Z,2.80
2023-01-08T14:20:29.941Z,3.23
2023-01-08T14:23:00.728Z,3.40
2023-01-08T14:25:30.170Z,3.70
2023-01-08T14:28:01.085Z,3.50
2023-01-08T14:30:30.016Z,3.53
2023-01-08T14:33:00.722Z,3.77
2023-01-08T14:35:32.711Z,5.30
2023-01-08T14:38:05.827Z,6.90
2023-01-08T14:40:39.077Z,6.07
2023-01-08T14:43:13.489Z,5.47
2023-01-08T14:45:48.204Z,5.40
2023-01-08T14:48:21.888Z,4.80
2023-01-08T14:51:04.147Z,4.70
2023-01-08T14:53:37.635Z,5.40
2023-01-08T14:56:07.875Z,4.13
2023-01-08T14:58:39.075Z,5.67
2023-01-08T15:01:09.981Z,8.93
2023-01-08T15:03:40.987Z,4.57
2023-01-08T15:06:11.490Z,4.50
2023-01-08T15:08:43.057Z,4.43
2023-01-08T15:11:22.861Z,6.50
2023-01-08T15:13:52.982Z,4.13
2023-01-08T15:16:29.768Z,5.97
2023-01-08T15:19:05.194Z,8.27
2023-01-08T15:21:34.346Z,7.50
2023-01-08T15:24:06.715Z,5.57
2023-01-08T15:26:35.487Z,5.40
2023-01-08T15:29:07.644Z,5.50
2023-01-08T15:31:47.300Z,7.83
2023-01-08T15:34:19.173Z,6.87
2023-01-08T15:36:47.899Z,5.60
2023-01-08T15:39:17.574Z,6.47
2023-01-08T15:42:03.556Z,6.13
2023-01-08T15:44:31.912Z,10.33
2023-01-08T15:47:00.282Z,6.37
2023-01-08T15:49:28.689Z,6.37
2023-01-08T15:51:57.296Z,6.70
2023-01-08T15:54:27.153Z,7.27
2023-01-08T15:56:55.514Z,6.90
2023-01-08T15:59:24.045Z,7.00
2023-01-08T16:01:55.498Z,5.90
2023-01-08T16:04:24.139Z,7.37
2023-01-08T16:06:52.518Z,8.33
2023-01-08T16:09:20.881Z,7.57
2023-01-08T16:11:52.515Z,6.80
2023-01-08T16:14:20.860Z,7.77
2023-01-08T16:16:49.475Z,6.40
2023-01-08T16:19:17.929Z,6.67
2023-01-08T16:21:48.199Z,5.93
2023-01-08T16:24:17.099Z,5.37
2023-01-08T16:26:45.810Z,6.10
2023-01-08T16:29:15.753Z,7.20
2023-01-08T16:31:46.727Z,7.40
2023-01-08T16:34:16.640Z,5.83
2023-01-08T16:36:45.148Z,5.70
2023-01-08T16:39:13.695Z,4.53
2023-01-08T16:41:42.408Z,4.17
2023-01-08T16:44:19.255Z,4.40
2023-01-08T16:46:47.786Z,4.30
2023-01-08T16:49:16.255Z,5.07
2023-01-08T16:51:44.672Z,4.30
2023-01-08T16:54:13.635Z,5.60
2023-01-08T16:56:42.053Z,6.23
2023-01-08T16:59:22.844Z,7.40
2023-01-08T17:01:54.371Z,7.33
2023-01-08T17:04:22.794Z,8.17
2023-01-08T17:06:51.146Z,9.37
2023-01-08T17:09:19.539Z,10.27
2023-01-08T17:11:48.011Z,10.60
2023-01-08T17:14:16.579Z,10.47
2023-01-08T17:16:46.033Z,9.30
2023-01-08T17:19:16.610Z,8.93
2023-01-08T17:21:45.950Z,10.77
2023-01-08T17:24:14.664Z,10.77
2023-01-08T17:26:43.048Z,11.70
2023-01-08T17:29:11.466Z,11.13
2023-01-08T17:31:40.731Z,10.73
2023-01-08T17:34:12.369Z,11.20
2023-01-08T17:36:42.561Z,11.10
2023-01-08T17:39:12.098Z,13.60
2023-01-08T17:41:57.944Z,13.90
2023-01-08T17:44:26.513Z,15.27
2023-01-08T17:46:54.915Z,13.77
2023-01-08T17:49:23.572Z,12.87
2023-01-08T17:51:53.432Z,11.97
2023-01-08T17:54:22.430Z,13.43
2023-01-08T17:56:53.580Z,11.90
2023-01-08T17:59:22.342Z,11.10
2023-01-08T18:01:53.455Z,10.20
2023-01-08T18:04:22.080Z,11.70
2023-01-08T18:06:50.481Z,9.70
2023-01-08T18:09:20.341Z,12.00
2023-01-08T18:11:48.650Z,10.37
2023-01-08T18:14:17.145Z,9.80
2023-01-08T18:16:46.097Z,8.77
2023-01-08T18:19:15.782Z,8.00
2023-01-08T18:21:44.585Z,8.43
2023-01-08T18:24:12.992Z,8.97
2023-01-08T18:26:43.508Z,8.63
2023-01-08T18:29:11.951Z,8.43
2023-01-08T18:31:40.379Z,9.60
2023-01-08T18:34:09.718Z,10.07
2023-01-08T18:36:38.093Z,9.37
2023-01-08T18:39:06.485Z,9.10
2023-01-08T18:41:52.310Z,9.07
2023-01-08T18:44:22.020Z,8.83
2023-01-08T18:46:50.350Z,9.07
2023-01-08T18:49:20.196Z,7.87
2023-01-08T18:51:48.568Z,7.23
2023-01-08T18:54:17.029Z,7.33
2023-01-08T18:56:46.420Z,6.20
2023-01-08T18:59:14.999Z,6.40
2023-01-08T19:01:44.808Z,5.57
2023-01-08T19:04:17.186Z,5.93
2023-01-08T19:06:45.637Z,6.13
2023-01-08T19:09:15.788Z,5.40
2023-01-08T19:11:44.596Z,6.20
2023-01-08T19:14:13.637Z,5.73
2023-01-08T19:16:43.658Z,5.87
2023-01-08T19:19:13.421Z,5.83
2023-01-08T19:21:41.742Z,6.03
2023-01-08T19:24:10.773Z,6.20
2023-01-08T19:26:39.825Z,5.87
2023-01-08T19:29:08.367Z,5.47
2023-01-08T19:31:36.986Z,5.60
2023-01-08T19:34:06.265Z,5.40
2023-01-08T19:36:35.993Z,5.53
2023-01-08T19:39:05.360Z,5.60
2023-01-08T19:41:51.336Z,5.10
2023-01-08T19:44:19.706Z,5.53
2023-01-08T19:46:48.047Z,5.03
2023-01-08T19:49:17.002Z,5.57
2023-01-08T19:51:46.697Z,5.03
2023-01-08T19:54:15.112Z,5.53
2023-01-08T19:56:43.520Z,6.40
2023-01-08T19:59:12.448Z,7.00
2023-01-08T20:01:42.809Z,6.17
2023-01-08T20:04:12.396Z,6.90
2023-01-08T20:06:40.798Z,7.13
2023-01-08T20:09:10.500Z,7.60
2023-01-08T20:11:38.956Z,8.87
2023-01-08T20:14:07.514Z,9.03
2023-01-08T20:16:35.890Z,9.73
2023-01-08T20:19:04.943Z,8.80
2023-01-08T20:21:34.913Z,8.50
2023-01-08T20:24:07.216Z,8.00
2023-01-08T20:26:37.754Z,8.03
2023-01-08T20:29:06.609Z,7.30
2023-01-08T20:31:35.653Z,7.30
2023-01-08T20:34:05.778Z,6.90
2023-01-08T20:36:35.544Z,7.20
2023-01-08T20:39:06.317Z,6.77
2023-01-08T20:41:36.417Z,7.90
2023-01-08T20:44:06.806Z,8.07
2023-01-08T20:46:37.595Z,6.67
2023-01-08T20:49:08.711Z,6.80
2023-01-08T20:51:39.625Z,6.60
2023-01-08T20:54:10.672Z,6.93
2023-01-08T20:56:40.851Z,8.13
2023-01-08T20:59:09.333Z,9.30
2023-01-08T21:01:38.784Z,7.80
2023-01-08T21:04:10.401Z,7.20
2023-01-08T21:06:39.084Z,8.37
2023-01-08T21:09:09.654Z,7.57
2023-01-08T21:11:41.705Z,6.97
2023-01-08T21:14:11.402Z,6.67
2023-01-08T21:16:40.696Z,8.07
2023-01-08T21:19:10.436Z,6.80
2023-01-08T21:21:40.846Z,6.97
2023-01-08T21:24:10.848Z,7.40
2023-01-08T21:26:39.617Z,8.13
2023-01-08T21:29:09.931Z,8.47
2023-01-08T21:31:39.420Z,8.20
2023-01-08T21:34:09.458Z,8.07
2023-01-08T21:36:39.249Z,7.50
2023-01-08T21:39:07.984Z,8.53
2023-01-08T21:41:53.573Z,8.53
2023-01-08T21:44:42.896Z,8.60
2023-01-08T21:47:16.392Z,7.80
2023-01-08T21:49:45.862Z,8.67
2023-01-08T21:52:31.831Z,7.97
2023-01-08T21:55:00.155Z,8.00
2023-01-08T21:57:29.139Z,7.40
2023-01-08T21:59:58.851Z,7.47
2023-01-08T22:02:27.287Z,7.30
2023-01-08T22:04:56.542Z,7.00
2023-01-08T22:07:25.171Z,8.03
2023-01-08T22:09:53.978Z,7.47
2023-01-08T22:12:23.685Z,9.73
2023-01-08T22:14:53.488Z,9.33
2023-01-08T22:17:24.557Z,9.10
2023-01-08T22:19:53.542Z,8.17
2023-01-08T22:22:22.227Z,8.90
2023-01-08T22:24:51.755Z,8.93
2023-01-08T22:27:20.740Z,7.60
2023-01-08T22:29:49.350Z,7.00
2023-01-08T22:32:17.757Z,7.40
2023-01-08T22:34:48.250Z,7.53
2023-01-08T22:37:18.519Z,6.43
2023-01-08T22:39:46.981Z,6.93
2023-01-08T22:42:15.586Z,7.07
2023-01-08T22:44:44.237Z,6.33
2023-01-08T22:47:12.628Z,6.77
2023-01-08T22:49:41.015Z,7.10
2023-01-08T22:52:11.002Z,6.80
2023-01-08T22:54:39.884Z,6.27
2023-01-08T22:57:08.513Z,6.83
2023-01-08T22:59:36.988Z,7.17
2023-01-08T23:02:05.569Z,7.30
2023-01-08T23:04:33.949Z,8.43
2023-01-08T23:07:02.328Z,7.77
2023-01-08T23:09:32.229Z,6.93
2023-01-08T23:12:00.973Z,6.60
2023-01-08T23:14:29.722Z,6.50
2023-01-08T23:16:58.246Z,5.77
2023-01-08T23:19:26.733Z,5.80
2023-01-08T23:21:55.282Z,6.40
2023-01-08T23:24:23.629Z,5.40
2023-01-08T23:26:53.409Z,5.77
2023-01-08T23:29:21.831Z,5.63
2023-01-08T23:31:51.044Z,5.83
2023-01-08T23:34:20.822Z,5.30
2023-01-08T23:36:49.152Z,4.90
2023-01-08T23:39:17.598Z,5.80
2023-01-08T23:41:46.553Z,6.20
2023-01-08T23:44:16.920Z,6.10
2023-01-08T23:46:45.254Z,5.77
2023-01-08T23:49:13.710Z,5.90
2023-01-08T23:51:42.728Z,6.00
2023-01-08T23:54:12.000Z,5.73
2023-01-08T23:56:40.562Z,5.83
2023-01-08T23:59:09.055Z,5.57
